createdAt,value
2022-11-24T00:02:38.466Z,8.94
2022-11-24T00:07:46.814Z,9
2022-11-24T00:12:55.797Z,9
2022-11-24T00:18:04.921Z,8.88
2022-11-24T00:23:13.394Z,8.94
2022-11-24T00:28:22.519Z,8.75
2022-11-24T00:33:32.277Z,8.69
2022-11-24T00:38:40.756Z,8.69
2022-11-24T00:43:50.521Z,8.75
2022-11-24T00:48:59.639Z,8.75
2022-11-24T00:54:09.427Z,8.69
2022-11-24T00:59:19.796Z,8.69
2022-11-24T01:04:30.195Z,8.62
2022-11-24T01:09:39.960Z,8.62
2022-11-24T01:14:49.083Z,8.69
2022-11-24T01:19:58.837Z,8.69
2022-11-24T01:25:08.598Z,8.69
2022-11-24T01:30:20.529Z,8.56
2022-11-24T01:35:36.054Z,8.56
2022-11-24T01:40:52.858Z,8.62
2022-11-24T01:46:09.685Z,8.56
2022-11-24T01:51:25.180Z,8.44
2022-11-24T01:56:41.357Z,8.44
2022-11-24T02:01:56.929Z,8.38
2022-11-24T02:07:13.089Z,8.5
2022-11-24T02:12:29.171Z,8.44
2022-11-24T02:16:54.062Z,8.31
2022-11-24T02:21:46.341Z,8.44
2022-11-24T02:26:56.116Z,8.44
2022-11-24T02:32:05.875Z,8.56
2022-11-24T02:37:14.992Z,8.56
2022-11-24T02:42:23.458Z,8.62
2022-11-24T02:47:38.462Z,8.69
2022-11-24T02:52:54.651Z,8.69
2022-11-24T02:58:10.137Z,8.69
2022-11-24T03:03:25.125Z,8.75
2022-11-24T03:08:39.330Z,8.81
2022-11-24T03:13:54.168Z,8.75
2022-11-24T03:19:09.655Z,8.75
2022-11-24T03:23:38.359Z,8.56
2022-11-24T03:28:46.870Z,8.5
2022-11-24T03:33:56.598Z,8.5
2022-11-24T03:39:06.390Z,8.44
2022-11-24T03:44:15.476Z,8.75
2022-11-24T03:49:25.239Z,8.56
2022-11-24T03:54:34.193Z,8.75
2022-11-24T03:59:43.480Z,8.88
2022-11-24T04:04:51.959Z,8.88
2022-11-24T04:10:55.270Z,8.81
2022-11-24T04:15:12.760Z,8.81
2022-11-24T04:20:21.236Z,8.75
2022-11-24T04:25:30.589Z,8.81
2022-11-24T04:30:45.955Z,8.88
2022-11-24T04:36:02.121Z,8.94
2022-11-24T04:41:18.281Z,9
2022-11-24T04:46:35.803Z,8.94
2022-11-24T04:51:52.057Z,8.75
2022-11-24T04:57:08.693Z,8.88
2022-11-24T05:01:37.485Z,9.06
2022-11-24T05:06:46.518Z,8.94
2022-11-24T05:11:55.666Z,9.19
2022-11-24T05:17:05.398Z,8.94
2022-11-24T05:22:15.157Z,8.94
2022-11-24T05:27:24.281Z,8.88
2022-11-24T05:32:33.398Z,8.88
2022-11-24T05:37:41.880Z,9
2022-11-24T05:42:50.387Z,9
2022-11-24T05:47:58.839Z,9
2022-11-24T05:53:07.956Z,8.94
2022-11-24T05:58:17.721Z,9.25
2022-11-24T06:03:26.841Z,9.31
2022-11-24T06:08:35.317Z,9.31
2022-11-24T06:13:45.254Z,9.19
2022-11-24T06:18:54.200Z,9.25
2022-11-24T06:24:03.959Z,9
2022-11-24T06:29:13.077Z,8.94
2022-11-24T06:34:27.416Z,9.12
2022-11-24T06:39:43.609Z,9.19
2022-11-24T06:45:00.156Z,9.25
2022-11-24T06:50:14.620Z,9.38
2022-11-24T06:55:30.140Z,9.5
2022-11-24T07:00:45.064Z,9.44
2022-11-24T07:06:00.573Z,9.44
2022-11-24T07:10:26.674Z,9.38
2022-11-24T07:16:31.018Z,9.44
2022-11-24T07:21:45.818Z,9.5
2022-11-24T07:26:12.595Z,9.44
2022-11-24T07:31:21.193Z,9.31
2022-11-24T07:36:30.228Z,9.38
2022-11-24T07:41:39.321Z,9.31
2022-11-24T07:46:48.444Z,9.31
2022-11-24T07:51:57.592Z,9.44
2022-11-24T07:57:06.684Z,9.44
2022-11-24T08:02:16.469Z,9.44
2022-11-24T08:07:25.632Z,9.44
2022-11-24T08:12:34.675Z,9.38
2022-11-24T08:17:47.941Z,9.56
2022-11-24T08:23:05.175Z,9.5
2022-11-24T08:28:22.995Z,9.5
2022-11-24T08:33:39.093Z,9.5
2022-11-24T08:38:57.066Z,9.56
2022-11-24T08:43:28.133Z,9.56
2022-11-24T08:48:37.871Z,9.62
2022-11-24T08:53:47.644Z,9.75
2022-11-24T08:58:56.860Z,9.75
2022-11-24T09:04:05.321Z,9.69
2022-11-24T09:09:13.716Z,10
2022-11-24T09:14:21.565Z,9.75
2022-11-24T09:19:31.719Z,9.69
2022-11-24T09:24:39.164Z,9.81
2022-11-24T09:29:48.284Z,9.75
2022-11-24T09:34:56.119Z,9.81
2022-11-24T09:40:04.764Z,9.94
2022-11-24T09:45:13.078Z,9.75
2022-11-24T09:50:22.205Z,9.75
2022-11-24T09:55:31.967Z,9.81
2022-11-24T10:00:41.084Z,9.75
2022-11-24T10:05:50.836Z,9.88
2022-11-24T10:10:59.973Z,9.94
2022-11-24T10:16:09.248Z,10.38
2022-11-24T10:21:17.563Z,10.31
2022-11-24T10:26:26.685Z,10.31
2022-11-24T10:31:37.842Z,10.19
2022-11-24T10:36:52.086Z,10.38
2022-11-24T10:42:40.767Z,10.44
2022-11-24T10:47:49.878Z,10.19
2022-11-24T10:52:59.000Z,10.44
2022-11-24T10:58:07.495Z,10.38
2022-11-24T11:03:15.996Z,10.31
2022-11-24T11:08:30.436Z,10.38
2022-11-24T11:13:46.890Z,10.81
2022-11-24T11:19:08.836Z,10.81
2022-11-24T11:24:20.844Z,10.88
2022-11-24T11:34:58.320Z,11
2022-11-24T11:40:10.627Z,11.06
2022-11-24T11:44:43.291Z,11.06
2022-11-24T11:49:34.838Z,11.12
2022-11-24T11:54:43.348Z,11.31
2022-11-24T11:59:53.076Z,11.5
2022-11-24T12:05:02.220Z,11.62
2022-11-24T12:10:11.644Z,11.69
2022-11-24T12:15:29.361Z,11.44
2022-11-24T12:20:44.515Z,11.38
2022-11-24T12:26:01.798Z,11.25
2022-11-24T12:26:51.794Z,11.25
2022-11-24T12:31:18.372Z,11.31
2022-11-24T12:32:08.279Z,11.31
2022-11-24T12:36:34.124Z,11.44
2022-11-24T12:44:44.929Z,11.62
2022-11-24T12:47:08.701Z,11.62
2022-11-24T12:52:25.161Z,11.75
2022-11-24T12:57:44.015Z,11.62
2022-11-24T13:09:58.346Z,11.62
2022-11-24T13:15:36.405Z,11.38
2022-11-24T13:20:40.671Z,11.38
2022-11-24T13:21:30.673Z,11.38
2022-11-24T13:25:48.530Z,11.19
2022-11-24T13:26:41.454Z,11.19
2022-11-24T13:36:29.559Z,11.31
2022-11-24T13:43:47.319Z,11.25
2022-11-24T13:44:09.294Z,11.25
2022-11-24T13:49:18.870Z,11.25
2022-11-24T13:49:25.092Z,11.25
2022-11-24T13:54:35.366Z,11.12
2022-11-24T13:54:41.173Z,11.12
2022-11-24T13:59:50.518Z,11.12
2022-11-24T14:01:30.568Z,11.12
2022-11-24T14:06:44.689Z,11.12
2022-11-24T14:08:24.722Z,11.12
2022-11-24T14:12:03.554Z,11.12
2022-11-24T14:19:04.437Z,10.94
2022-11-24T14:24:59.028Z,11
2022-11-24T14:31:44.857Z,11.06
2022-11-24T14:35:04.892Z,11.06
2022-11-24T14:40:09.472Z,11.06
2022-11-24T14:45:28.195Z,10.69
2022-11-24T14:50:45.020Z,10.56
2022-11-24T14:56:03.762Z,10.62
2022-11-24T15:03:11.501Z,10.81
2022-11-24T15:03:41.165Z,10.81
2022-11-24T15:08:50.709Z,10.5
2022-11-24T15:28:51.734Z,10.44
2022-11-24T15:34:02.362Z,10.38
2022-11-24T16:00:50.504Z,9.69
2022-11-24T16:05:54.678Z,9.75
2022-11-24T16:16:28.328Z,9.56
2022-11-24T16:20:37.613Z,9.56
2022-11-24T16:25:53.797Z,9.5
2022-11-24T16:36:28.034Z,9.44
2022-11-24T16:47:02.393Z,9.38
2022-11-24T16:47:52.392Z,9.38
2022-11-24T16:57:36.545Z,9.5
2022-11-24T16:58:26.545Z,9.5
2022-11-24T17:08:08.681Z,9.25
2022-11-24T17:08:58.685Z,9.25
2022-11-24T17:18:55.478Z,9.12
2022-11-24T17:19:31.807Z,9.12
2022-11-24T17:24:25.015Z,9.12
2022-11-24T17:24:48.050Z,9.12
2022-11-24T17:29:42.516Z,9.25
2022-11-24T17:30:08.655Z,9.25
2022-11-24T17:35:05.804Z,9.38
2022-11-24T17:35:22.261Z,9.38
2022-11-24T17:40:31.494Z,9.5
2022-11-24T17:40:42.388Z,9.5
2022-11-24T17:45:51.594Z,9.56
2022-11-24T17:55:37.960Z,9.69
2022-11-24T18:19:26.774Z,9.5
2022-11-24T18:27:18.756Z,9.38
2022-11-24T18:38:23.476Z,9.38
2022-11-24T18:55:51.801Z,9.19
2022-11-24T19:30:26.944Z,9.06
2022-11-24T19:41:00.160Z,8.75
2022-11-24T20:07:18.202Z,8.44
2022-11-24T20:23:05.374Z,8.62
2022-11-24T20:28:21.528Z,8.31
2022-11-24T20:33:37.033Z,8.12
2022-11-24T20:38:53.186Z,8.19
2022-11-24T20:44:09.369Z,8.19
2022-11-24T20:49:24.221Z,8.25
2022-11-24T20:54:39.131Z,8.38
2022-11-24T20:59:05.258Z,8.31
2022-11-24T21:03:30.227Z,8.31
2022-11-24T21:08:45.163Z,8.12
2022-11-24T21:14:00.540Z,8.25
2022-11-24T21:19:15.449Z,8.25
2022-11-24T21:24:30.299Z,8.38
2022-11-24T21:28:59.009Z,8.31
2022-11-24T21:34:07.482Z,8.38
2022-11-24T21:39:16.826Z,8.38
2022-11-24T21:44:26.354Z,8.38
2022-11-24T21:49:34.869Z,8.38
2022-11-24T21:54:43.317Z,8.25
2022-11-24T21:59:51.223Z,8.12
2022-11-24T22:05:00.915Z,8.12
2022-11-24T22:10:10.024Z,8.06
2022-11-24T22:15:18.518Z,8.12
2022-11-24T22:20:26.986Z,8.38
2022-11-24T22:25:36.754Z,8.38
2022-11-24T22:30:46.635Z,8.12
2022-11-24T22:35:56.278Z,8.06
2022-11-24T22:41:05.400Z,8
2022-11-24T22:46:15.288Z,8
2022-11-24T22:51:24.918Z,8.06
2022-11-24T22:56:34.070Z,8.19
2022-11-24T23:01:43.161Z,8
2022-11-24T23:06:52.918Z,8
2022-11-24T23:12:02.678Z,8.06
2022-11-24T23:17:12.434Z,8
2022-11-24T23:22:20.922Z,8.19
2022-11-24T23:27:29.394Z,8.06
2022-11-24T23:32:39.153Z,8.19
2022-11-24T23:38:08.119Z,8.25
2022-11-24T23:42:56.119Z,8.19
2022-11-24T23:48:10.701Z,8.19
2022-11-24T23:53:25.965Z,8.44
2022-11-24T23:58:41.874Z,8.56
